Time;durP1;ratioP1;P1;durP2;ratioP2;P2;SDS_P1;SDS_P2;PMS_P1;PMS_P2;Temp;Humidity;BMP_temperature;BMP_pressure;BME280_temperature;BME280_humidity;BME280_pressure;Samples;Min_cycle;Max_cycle;Signal;HPM_P1;HPM_P2
2021/03/24 00:01:25;;;;;;;19.85;13.18;;;128.80;2252.80;;;;;;5076550;28;20359;-81
2021/03/24 00:03:52;;;;;;;19.50;13.50;;;128.80;2252.80;;;;;;5075057;28;20466;-78
2021/03/24 00:06:19;;;;;;;23.67;14.85;;;128.80;2252.80;;;;;;5076164;28;20052;-86
2021/03/24 00:08:45;;;;;;;19.02;13.60;;;128.70;2252.80;;;;;;5075202;28;20355;-86
2021/03/24 00:11:13;;;;;;;19.95;13.32;;;128.80;2252.80;;;;;;5075497;28;20090;-71
2021/03/24 00:13:39;;;;;;;21.27;13.63;;;128.70;2252.80;;;;;;5074895;28;20039;-86
2021/03/24 00:16:06;;;;;;;21.65;12.88;;;128.40;2252.80;;;;;;5075949;28;20031;-86
2021/03/24 00:18:32;;;;;;;21.17;13.20;;;128.70;2252.80;;;;;;5076488;28;20429;-80
2021/03/24 00:20:58;;;;;;;19.08;12.90;;;128.80;2252.80;;;;;;5075424;28;20421;-84
2021/03/24 00:23:25;;;;;;;17.55;13.15;;;128.70;2252.80;;;;;;5075376;28;20082;-83
2021/03/24 00:25:51;;;;;;;18.92;12.80;;;128.50;2252.80;;;;;;5075455;28;20048;-85
2021/03/24 00:28:18;;;;;;;18.83;12.80;;;128.70;2252.80;;;;;;5075723;28;20029;-81
2021/03/24 00:30:47;;;;;;;22.98;13.55;;;128.70;2252.80;;;;;;5076125;28;20104;-78
2021/03/24 00:33:16;;;;;;;17.25;11.82;;;128.70;2252.80;;;;;;5074272;28;20066;-82
2021/03/24 00:35:42;;;;;;;18.48;12.70;;;128.70;2252.80;;;;;;5075847;28;20389;-85
2021/03/24 00:38:09;;;;;;;21.77;13.07;;;128.60;2252.80;;;;;;5075191;28;20111;-84
2021/03/24 00:40:42;;;;;;;19.88;13.93;;;128.60;2252.80;;;;;;5058545;28;20032;-83
2021/03/24 00:43:08;;;;;;;19.95;13.40;;;128.60;2252.80;;;;;;5071889;28;20021;-85
2021/03/24 00:45:38;;;;;;;19.77;13.25;;;128.60;2252.80;;;;;;5075227;28;20032;-86
2021/03/24 00:48:10;;;;;;;20.60;12.65;;;128.50;2252.80;;;;;;5075357;28;20036;-85
2021/03/24 00:50:36;;;;;;;18.63;13.30;;;128.50;2252.80;;;;;;5087693;28;20395;-84
2021/03/24 00:53:03;;;;;;;25.08;12.68;;;128.50;2252.80;;;;;;5075058;28;20032;-82
2021/03/24 00:55:28;;;;;;;18.35;13.02;;;128.60;2252.80;;;;;;5074676;28;20025;-83
2021/03/24 00:57:54;;;;;;;21.50;12.85;;;128.50;2252.80;;;;;;5057295;28;20044;-86
2021/03/24 01:00:29;;;;;;;17.48;13.05;;;128.50;2252.80;;;;;;5075675;28;20029;-85
2021/03/24 01:02:54;;;;;;;21.02;13.30;;;128.50;2252.80;;;;;;5074573;28;20103;-73
2021/03/24 01:05:22;;;;;;;18.85;12.93;;;128.50;2252.80;;;;;;5074224;28;20436;-86
2021/03/24 01:07:49;;;;;;;19.52;13.30;;;128.50;2252.80;;;;;;5074446;28;20116;-69
2021/03/24 01:10:19;;;;;;;18.25;12.63;;;128.50;2252.80;;;;;;5074355;28;20032;-73
2021/03/24 01:12:45;;;;;;;16.38;12.15;;;128.50;2252.80;;;;;;5074630;28;20131;-84
2021/03/24 01:15:12;;;;;;;20.25;11.85;;;128.60;2252.80;;;;;;5053523;28;20048;-73
2021/03/24 01:17:37;;;;;;;23.15;13.05;;;128.50;2252.80;;;;;;5073568;28;20024;-72
2021/03/24 01:20:04;;;;;;;17.83;12.98;;;128.40;2252.80;;;;;;5074807;28;20024;-73
2021/03/24 01:22:30;;;;;;;20.50;13.00;;;128.50;2252.80;;;;;;5073476;28;20108;-84
2021/03/24 01:24:58;;;;;;;19.58;12.85;;;128.50;2252.80;;;;;;5070235;28;20687;-82
2021/03/24 01:27:24;;;;;;;18.75;12.38;;;128.30;2252.80;;;;;;5070071;28;20432;-81
2021/03/24 01:29:50;;;;;;;18.38;12.27;;;128.40;2252.80;;;;;;5074121;28;20046;-73
2021/03/24 01:32:16;;;;;;;20.92;12.45;;;128.20;2252.80;;;;;;5074298;28;20127;-71
2021/03/24 01:34:41;;;;;;;17.52;12.02;;;128.20;2252.80;;;;;;5072678;28;20032;-81
2021/03/24 01:37:07;;;;;;;20.38;13.10;;;128.20;2252.80;;;;;;5074417;28;20035;-76
2021/03/24 01:39:33;;;;;;;18.10;12.95;;;128.20;2252.80;;;;;;5076199;28;20078;-79
2021/03/24 01:41:59;;;;;;;20.25;12.95;;;128.30;2252.80;;;;;;5074142;28;20033;-71
2021/03/24 01:44:26;;;;;;;18.35;11.95;;;128.30;2252.80;;;;;;5073335;28;20081;-76
2021/03/24 01:46:52;;;;;;;18.25;12.48;;;128.30;2252.80;;;;;;5073841;28;20060;-78
2021/03/24 01:49:28;;;;;;;21.40;13.23;;;128.30;2252.80;;;;;;5074023;28;20020;-82
2021/03/24 01:52:04;;;;;;;19.15;11.40;;;128.20;2252.80;;;;;;5073041;28;20077;-72
2021/03/24 01:54:37;;;;;;;19.00;11.98;;;128.30;2252.80;;;;;;5072586;28;20020;-70
2021/03/24 01:57:22;;;;;;;19.30;12.05;;;128.20;2252.80;;;;;;5074025;28;20531;-73
2021/03/24 01:59:50;;;;;;;17.48;12.45;;;128.30;2252.80;;;;;;5060043;28;20036;-82
2021/03/24 02:02:24;;;;;;;19.63;12.60;;;128.30;2252.80;;;;;;5070027;28;20024;-71
2021/03/24 02:04:50;;;;;;;17.48;12.55;;;128.30;2252.80;;;;;;5073821;28;20029;-70
2021/03/24 02:07:44;;;;;;;18.40;12.85;;;128.30;2252.80;;;;;;5073115;28;20032;-81
2021/03/24 02:10:32;;;;;;;17.58;12.80;;;128.30;2252.80;;;;;;5072503;28;20081;-71
2021/03/24 02:13:09;;;;;;;17.77;13.00;;;128.30;2252.80;;;;;;5060736;28;20068;-70
2021/03/24 02:15:40;;;;;;;18.23;12.38;;;128.30;2252.80;;;;;;5073123;28;20082;-84
2021/03/24 02:18:09;;;;;;;15.82;12.50;;;128.30;2252.80;;;;;;5073111;28;20032;-71
2021/03/24 02:20:47;;;;;;;20.35;12.82;;;128.20;2252.80;;;;;;5054825;28;20032;-78
2021/03/24 02:23:24;;;;;;;21.83;12.38;;;128.30;2252.80;;;;;;5072907;28;20033;-70
2021/03/24 02:26:08;;;;;;;22.00;13.30;;;128.30;2252.80;;;;;;5073327;28;20020;-70
2021/03/24 02:28:36;;;;;;;16.15;12.48;;;128.30;2252.80;;;;;;5073109;28;20027;-70
2021/03/24 02:31:04;;;;;;;18.85;13.27;;;128.30;2252.80;;;;;;5072895;28;20024;-70
2021/03/24 02:33:34;;;;;;;19.38;12.98;;;128.30;2252.80;;;;;;5073181;28;20116;-84
2021/03/24 02:36:06;;;;;;;17.88;13.00;;;128.30;2252.80;;;;;;5045442;28;20398;-71
2021/03/24 02:38:35;;;;;;;19.17;12.98;;;128.30;2252.80;;;;;;5066104;28;20109;-74
2021/03/24 02:41:03;;;;;;;17.55;12.75;;;128.30;2252.80;;;;;;5071599;28;20135;-78
2021/03/24 02:43:31;;;;;;;20.95;13.10;;;128.30;2252.80;;;;;;5072728;28;20103;-78
2021/03/24 02:45:59;;;;;;;20.17;13.25;;;128.30;2252.80;;;;;;5073397;28;20043;-74
2021/03/24 02:48:29;;;;;;;21.35;12.65;;;128.30;2252.80;;;;;;5042345;28;20442;-71
2021/03/24 02:50:57;;;;;;;18.73;13.70;;;128.30;2252.80;;;;;;5071299;28;20044;-78
2021/03/24 02:53:23;;;;;;;21.60;14.35;;;128.30;2252.80;;;;;;5068585;28;20373;-83
2021/03/24 02:55:50;;;;;;;23.65;15.23;;;128.30;2252.80;;;;;;5072431;28;20377;-82
2021/03/24 02:58:15;;;;;;;28.30;15.73;;;128.30;2252.80;;;;;;5073426;28;20162;-79
2021/03/24 03:00:41;;;;;;;29.42;16.80;;;128.30;2252.80;;;;;;5075597;28;20067;-81
2021/03/24 03:03:37;;;;;;;23.50;15.38;;;128.30;2252.80;;;;;;5073349;28;20025;-80
2021/03/24 03:06:06;;;;;;;22.08;14.68;;;128.30;2252.80;;;;;;5053472;28;20389;-80
2021/03/24 03:08:58;;;;;;;24.02;16.17;;;128.30;2252.80;;;;;;5072484;28;20032;-71
2021/03/24 03:11:37;;;;;;;22.45;15.57;;;128.20;2252.80;;;;;;5072333;28;20493;-73
2021/03/24 03:14:07;;;;;;;22.42;15.80;;;128.20;2252.80;;;;;;5071834;28;20070;-70
2021/03/24 03:16:51;;;;;;;25.75;15.90;;;128.10;2252.80;;;;;;5059434;28;20038;-81
2021/03/24 03:19:57;;;;;;;20.70;15.00;;;128.10;2252.80;;;;;;5072139;28;20378;-71
2021/03/24 03:22:27;;;;;;;24.58;15.48;;;128.10;2252.80;;;;;;5071971;28;20093;-73
2021/03/24 03:25:16;;;;;;;23.50;16.35;;;128.20;2252.80;;;;;;5071874;28;20025;-72
2021/03/24 03:27:44;;;;;;;24.10;16.60;;;128.20;2252.80;;;;;;5071440;28;20474;-70
2021/03/24 03:30:14;;;;;;;24.00;15.55;;;128.10;2252.80;;;;;;5071561;28;20021;-77
2021/03/24 03:32:43;;;;;;;24.33;16.73;;;128.10;2252.80;;;;;;5072080;28;20021;-71
2021/03/24 03:35:18;;;;;;;25.95;17.73;;;128.10;2252.80;;;;;;5071427;28;20496;-75
2021/03/24 03:37:45;;;;;;;24.08;16.88;;;128.20;2252.80;;;;;;5062334;28;20154;-82
2021/03/24 03:40:17;;;;;;;25.25;17.13;;;128.10;2252.80;;;;;;5071737;28;20047;-70
2021/03/24 03:42:42;;;;;;;24.40;16.60;;;128.20;2252.80;;;;;;5053970;28;20159;-75
2021/03/24 03:45:10;;;;;;;26.20;16.98;;;128.20;2252.80;;;;;;5069083;28;20529;-71
2021/03/24 03:47:39;;;;;;;26.38;17.80;;;128.20;2252.80;;;;;;5071663;28;20166;-72
2021/03/24 03:50:08;;;;;;;27.70;17.77;;;128.20;2252.80;;;;;;5072829;28;20031;-70
2021/03/24 03:53:10;;;;;;;27.67;17.90;;;103.20;2227.20;;;;;;5052465;28;20116;-78
2021/03/24 03:56:03;;;;;;;28.15;18.30;;;128.20;2252.80;;;;;;5051047;28;20017;-73
2021/03/24 03:58:54;;;;;;;28.20;17.70;;;128.20;2252.80;;;;;;5051838;28;20044;-77
2021/03/24 04:01:25;;;;;;;29.10;18.85;;;128.20;2252.80;;;;;;5042699;28;20025;-70
2021/03/24 04:03:55;;;;;;;26.38;18.33;;;128.20;2252.80;;;;;;5064008;28;20021;-77
2021/03/24 04:07:04;;;;;;;32.58;20.67;;;128.20;2252.80;;;;;;5061611;28;20033;-85
2021/03/24 04:09:30;;;;;;;33.60;20.48;;;128.20;2252.80;;;;;;5071097;28;20013;-71
2021/03/24 04:11:57;;;;;;;34.65;21.63;;;128.20;2252.80;;;;;;5070509;28;20485;-74
2021/03/24 04:14:26;;;;;;;33.58;21.73;;;128.20;2252.80;;;;;;5062814;28;20059;-83
2021/03/24 04:16:53;;;;;;;30.55;19.85;;;128.20;2252.80;;;;;;5058827;28;20489;-74
2021/03/24 04:19:23;;;;;;;32.08;19.73;;;128.30;2252.80;;;;;;5066693;28;20036;-73
2021/03/24 04:21:53;;;;;;;33.17;20.63;;;128.20;2252.80;;;;;;5064064;28;20033;-71
2021/03/24 04:24:31;;;;;;;32.13;21.20;;;128.30;2252.80;;;;;;5065488;28;20044;-78
2021/03/24 04:26:59;;;;;;;31.25;21.02;;;128.30;2252.80;;;;;;5059196;28;20078;-71
2021/03/24 04:29:33;;;;;;;31.17;20.95;;;128.30;2252.80;;;;;;5071501;28;20449;-71
2021/03/24 04:32:01;;;;;;;30.98;22.27;;;128.40;2252.80;;;;;;5067563;28;20112;-71
2021/03/24 04:34:28;;;;;;;29.42;20.55;;;128.30;2252.80;;;;;;5071859;28;20071;-71
2021/03/24 04:37:20;;;;;;;27.58;19.67;;;128.30;2252.80;;;;;;5070836;28;20556;-78
2021/03/24 04:39:54;;;;;;;30.33;21.13;;;128.30;2252.80;;;;;;5071349;28;20112;-76
2021/03/24 04:42:27;;;;;;;30.92;20.75;;;128.30;2252.80;;;;;;5072155;28;20100;-76
2021/03/24 04:44:56;;;;;;;28.13;19.30;;;128.20;2252.80;;;;;;5075042;28;20103;-76
2021/03/24 04:47:27;;;;;;;32.70;21.48;;;128.20;2252.80;;;;;;5068368;28;20033;-72
2021/03/24 04:50:01;;;;;;;28.98;20.40;;;128.30;2252.80;;;;;;5074563;28;20029;-75
2021/03/24 04:52:30;;;;;;;32.92;21.35;;;128.30;2252.80;;;;;;5081104;28;20056;-74
2021/03/24 04:54:59;;;;;;;33.17;21.00;;;128.30;2252.80;;;;;;5094961;28;20039;-72
2021/03/24 04:57:26;;;;;;;35.22;22.67;;;128.20;2252.80;;;;;;5095469;28;20017;-71
2021/03/24 05:00:02;;;;;;;32.92;21.77;;;128.40;2252.80;;;;;;5091863;28;20024;-72
2021/03/24 05:02:33;;;;;;;29.88;20.83;;;128.30;2252.80;;;;;;5095676;28;20023;-72
2021/03/24 05:05:13;;;;;;;35.22;22.70;;;128.30;2252.80;;;;;;5077377;28;20016;-83
2021/03/24 05:07:48;;;;;;;31.45;21.15;;;128.40;2252.80;;;;;;5094850;28;20157;-70
2021/03/24 05:10:20;;;;;;;33.97;22.65;;;128.50;2252.80;;;;;;5095673;28;20031;-83
2021/03/24 05:12:55;;;;;;;30.95;22.67;;;128.40;2252.80;;;;;;5080884;28;20056;-76
2021/03/24 05:15:34;;;;;;;31.77;22.15;;;128.40;2252.80;;;;;;5090451;28;20099;-76
2021/03/24 05:18:03;;;;;;;32.60;22.25;;;128.40;2252.80;;;;;;5086845;28;20055;-81
2021/03/24 05:20:42;;;;;;;33.97;23.90;;;128.30;2252.80;;;;;;5093018;28;20047;-73
2021/03/24 05:23:11;;;;;;;31.48;21.90;;;128.30;2252.80;;;;;;5089070;28;20028;-80
2021/03/24 05:25:40;;;;;;;28.50;20.73;;;128.30;2252.80;;;;;;5089494;28;20035;-68
2021/03/24 05:28:18;;;;;;;32.85;21.67;;;128.30;2252.80;;;;;;5093727;28;20036;-80
2021/03/24 05:30:54;;;;;;;27.05;20.48;;;128.30;2252.80;;;;;;5093889;28;20029;-71
2021/03/24 05:33:25;;;;;;;27.70;20.30;;;128.20;2252.80;;;;;;5095777;28;20503;-79
2021/03/24 05:35:57;;;;;;;29.85;20.63;;;128.20;2252.80;;;;;;5097106;28;20020;-73
2021/03/24 05:38:52;;;;;;;28.27;20.20;;;128.20;2252.80;;;;;;5092980;28;20024;-79
2021/03/24 05:41:27;;;;;;;26.17;20.05;;;128.10;2252.80;;;;;;4990148;28;20035;-79
2021/03/24 05:44:13;;;;;;;28.23;20.73;;;128.20;2252.80;;;;;;4978145;28;20064;-78
2021/03/24 05:47:12;;;;;;;27.67;21.35;;;128.20;2252.80;;;;;;4991761;28;20042;-72
2021/03/24 05:49:41;;;;;;;26.98;19.23;;;128.20;2252.80;;;;;;4987692;28;20114;-71
2021/03/24 05:52:25;;;;;;;31.35;20.75;;;128.30;2252.80;;;;;;4973327;28;20039;-91
2021/03/24 05:55:27;;;;;;;28.42;21.27;;;128.30;2252.80;;;;;;4965071;28;20162;-87
2021/03/24 05:58:11;;;;;;;27.77;20.65;;;128.40;2252.80;;;;;;4973171;28;20046;-82
2021/03/24 06:00:55;;;;;;;32.00;22.30;;;128.30;2252.80;;;;;;4966072;28;20037;-82
2021/03/24 06:03:53;;;;;;;33.13;22.70;;;128.40;2252.80;;;;;;4966971;28;20493;-86
2021/03/24 06:06:42;;;;;;;30.15;21.52;;;128.30;2252.80;;;;;;4915916;29;20524;-76
2021/03/24 06:09:26;;;;;;;36.63;23.83;;;128.40;2252.80;;;;;;4821901;29;20031;-66
2021/03/24 06:12:16;;;;;;;35.95;25.10;;;128.30;2252.80;;;;;;4807547;29;20448;-85
2021/03/24 06:15:06;;;;;;;42.05;26.15;;;128.40;2252.80;;;;;;4822771;29;20045;-83
2021/03/24 06:17:50;;;;;;;36.28;25.17;;;128.40;2252.80;;;;;;4853422;29;20043;-69
2021/03/24 06:20:34;;;;;;;32.15;24.13;;;128.40;2252.80;;;;;;4896484;29;20049;-78
2021/03/24 06:23:21;;;;;;;35.00;24.58;;;128.50;2252.80;;;;;;4895126;29;20045;-70
2021/03/24 06:25:53;;;;;;;41.28;25.63;;;128.50;2252.80;;;;;;4893746;29;20033;-83
2021/03/24 06:28:56;;;;;;;34.75;23.83;;;128.50;2252.80;;;;;;4896861;29;20403;-73
2021/03/24 06:31:53;;;;;;;31.02;23.95;;;128.60;2252.80;;;;;;4896084;29;20040;-84
2021/03/24 06:34:39;;;;;;;35.35;24.25;;;128.70;2252.80;;;;;;4890853;29;20130;-89
2021/03/24 06:37:26;;;;;;;37.85;25.02;;;128.70;2252.80;;;;;;4896249;29;20443;-84
2021/03/24 06:40:19;;;;;;;31.23;21.83;;;128.80;2252.80;;;;;;4897638;29;20632;-82
2021/03/24 06:42:51;;;;;;;29.35;19.00;;;128.90;2252.80;;;;;;4916900;28;20035;-84
2021/03/24 06:45:42;;;;;;;22.55;15.05;;;153.70;2252.80;;;;;;4988570;28;20045;-71
2021/03/24 06:48:11;;;;;;;22.77;14.20;;;153.60;2252.80;;;;;;5074848;28;20036;-72
2021/03/24 06:51:05;;;;;;;18.33;13.52;;;153.60;2252.80;;;;;;5078944;28;20123;-78
2021/03/24 06:54:05;;;;;;;18.10;13.05;;;153.60;2252.80;;;;;;5078142;28;20024;-82
2021/03/24 06:56:40;;;;;;;15.98;11.48;;;153.60;2252.80;;;;;;5092598;28;20020;-70
2021/03/24 06:59:36;;;;;;;16.75;12.02;;;128.90;2252.80;;;;;;5084838;28;20377;-70
2021/03/24 07:02:01;;;;;;;16.88;12.27;;;153.60;2252.80;;;;;;5090668;28;20055;-83
2021/03/24 07:04:30;;;;;;;15.52;11.10;;;128.90;2252.80;;;;;;5092668;28;20055;-77
2021/03/24 07:06:58;;;;;;;16.63;11.70;;;128.80;2252.80;;;;;;5089092;28;20485;-72
2021/03/24 07:09:36;;;;;;;17.73;12.18;;;128.80;2252.80;;;;;;5092272;28;20041;-69
2021/03/24 07:12:25;;;;;;;20.17;12.57;;;128.70;2252.80;;;;;;5091250;28;20064;-83
2021/03/24 07:15:23;;;;;;;18.70;12.98;;;128.80;2252.80;;;;;;5091693;28;20016;-76
2021/03/24 07:18:07;;;;;;;20.25;14.18;;;128.70;2252.80;;;;;;5083020;28;20100;-78
2021/03/24 07:20:39;;;;;;;16.35;12.90;;;128.80;2252.80;;;;;;5091933;28;20028;-76
2021/03/24 07:23:23;;;;;;;18.85;13.13;;;128.90;2252.80;;;;;;5084077;28;20028;-84
2021/03/24 07:26:03;;;;;;;17.20;12.95;;;128.90;2252.80;;;;;;5083412;28;20046;-76
2021/03/24 07:29:05;;;;;;;21.40;14.35;;;128.90;2252.80;;;;;;5091543;28;20454;-80
2021/03/24 07:31:45;;;;;;;21.27;13.85;;;128.90;2252.80;;;;;;5090504;28;20485;-76
2021/03/24 07:34:25;;;;;;;21.42;14.80;;;128.90;2252.80;;;;;;5085550;28;20008;-75
2021/03/24 07:37:04;;;;;;;22.40;15.23;;;153.60;2252.80;;;;;;5089744;28;20114;-75
2021/03/24 07:39:42;;;;;;;21.77;15.13;;;153.70;2252.80;;;;;;5086890;28;20051;-88
2021/03/24 07:42:07;;;;;;;25.48;15.98;;;153.80;2252.80;;;;;;5090643;28;20024;-74
2021/03/24 07:45:14;;;;;;;24.45;16.30;;;153.70;2252.80;;;;;;5091146;28;20096;-77
2021/03/24 07:47:53;;;;;;;24.45;17.05;;;153.80;2252.80;;;;;;5007349;28;20547;-85
2021/03/24 07:50:36;;;;;;;28.77;17.42;;;153.80;2252.80;;;;;;5010916;28;20443;-84
2021/03/24 07:53:10;;;;;;;28.20;17.45;;;153.80;2252.80;;;;;;5007848;28;20492;-74
2021/03/24 07:55:41;;;;;;;24.65;16.73;;;153.80;2252.80;;;;;;5003055;28;20038;-87
2021/03/24 07:58:15;;;;;;;22.67;16.25;;;153.70;2252.80;;;;;;4998694;28;20045;-74
2021/03/24 08:00:41;;;;;;;28.42;18.83;;;153.70;2252.80;;;;;;5008439;28;20032;-70
2021/03/24 08:03:19;;;;;;;27.08;18.40;;;153.80;2252.80;;;;;;4995328;28;20078;-72
2021/03/24 08:06:26;;;;;;;23.70;17.35;;;153.80;2252.80;;;;;;5002804;28;20039;-82
2021/03/24 08:09:17;;;;;;;28.05;20.88;;;153.80;2252.80;;;;;;4946322;28;20058;-84
2021/03/24 08:12:14;;;;;;;37.60;26.30;;;153.90;2252.80;;;;;;4937116;28;20054;-88
2021/03/24 08:15:19;;;;;;;24.90;17.00;;;153.90;2252.80;;;;;;4935111;28;20552;-69
2021/03/24 08:18:07;;;;;;;26.63;19.73;;;153.80;2252.80;;;;;;4958266;28;20050;-72
2021/03/24 08:20:54;;;;;;;25.45;17.35;;;153.80;2252.80;;;;;;5009292;28;20065;-68
2021/03/24 08:23:33;;;;;;;31.20;18.30;;;153.80;2252.80;;;;;;5000920;28;20030;-73
2021/03/24 08:26:04;;;;;;;27.48;18.75;;;153.70;2252.80;;;;;;5009421;28;20538;-78
2021/03/24 08:28:55;;;;;;;27.77;18.73;;;153.70;2252.80;;;;;;5000960;28;20069;-83
2021/03/24 08:31:32;;;;;;;29.77;19.40;;;128.90;2252.80;;;;;;5004576;28;20025;-78
2021/03/24 08:34:22;;;;;;;28.90;20.30;;;153.80;2252.80;;;;;;5013073;28;20497;-76
2021/03/24 08:36:59;;;;;;;29.40;21.67;;;153.80;2252.80;;;;;;5003752;28;20427;-74
2021/03/24 08:39:33;;;;;;;28.75;21.45;;;153.90;2252.80;;;;;;5001793;28;20091;-74
2021/03/24 08:42:24;;;;;;;30.95;22.17;;;153.90;2252.80;;;;;;5013205;28;20049;-73
2021/03/24 08:44:49;;;;;;;32.45;23.20;;;153.90;2252.80;;;;;;5028737;28;20044;-72
2021/03/24 08:47:25;;;;;;;28.77;21.67;;;153.90;2252.80;;;;;;5098511;28;20100;-76
2021/03/24 08:49:54;;;;;;;42.40;26.45;;;153.80;2252.80;;;;;;5091963;28;20028;-71
2021/03/24 08:52:23;;;;;;;31.27;22.30;;;153.70;2252.80;;;;;;5089868;28;20077;-78
2021/03/24 08:54:49;;;;;;;32.05;23.45;;;153.70;2252.80;;;;;;5092189;28;20489;-80
2021/03/24 08:57:33;;;;;;;32.47;23.00;;;153.70;2252.80;;;;;;5093278;28;20147;-80
2021/03/24 09:00:07;;;;;;;;;;;153.70;2252.80;;;;;;5093707;28;20024;-84
2021/03/24 09:03:04;;;;;;;29.23;20.90;;;153.70;2252.80;;;;;;5089680;28;19933;-73
2021/03/24 09:05:38;;;;;;;30.85;21.25;;;153.60;2252.80;;;;;;5080840;28;20024;-87
2021/03/24 09:08:07;;;;;;;28.27;20.52;;;128.80;2252.80;;;;;;5085612;28;20043;-70
2021/03/24 09:11:00;;;;;;;26.60;19.95;;;128.80;2252.80;;;;;;5096509;28;20020;-70
2021/03/24 09:13:43;;;;;;;26.17;19.75;;;128.80;2252.80;;;;;;5087368;28;20020;-73
2021/03/24 09:16:11;;;;;;;28.77;19.33;;;153.60;2252.80;;;;;;5094910;28;20020;-73
2021/03/24 09:18:47;;;;;;;25.92;19.00;;;153.80;2252.80;;;;;;5090855;28;20077;-68
2021/03/24 09:21:26;;;;;;;23.17;18.65;;;154.00;2252.80;;;;;;5068010;28;20037;-67
2021/03/24 09:24:03;;;;;;;26.85;19.05;;;154.10;2252.80;;;;;;5090279;28;20031;-85
2021/03/24 09:26:56;;;;;;;24.60;18.08;;;154.30;2252.80;;;;;;5094022;28;20496;-73
2021/03/24 09:29:45;;;;;;;29.00;20.52;;;154.40;2252.80;;;;;;5089353;28;20024;-71
2021/03/24 09:32:26;;;;;;;24.15;18.95;;;154.30;2252.80;;;;;;5091549;28;20492;-84
2021/03/24 09:35:30;;;;;;;28.00;20.10;;;154.20;2252.80;;;;;;5092562;28;20032;-75
2021/03/24 09:38:08;;;;;;;26.70;18.35;;;154.40;2252.80;;;;;;5089387;28;20032;-72
2021/03/24 09:40:46;;;;;;;24.20;17.60;;;154.30;2252.80;;;;;;5088056;28;20047;-68
2021/03/24 09:43:24;;;;;;;23.40;17.25;;;154.40;2252.80;;;;;;5089809;28;20032;-68
2021/03/24 09:46:10;;;;;;;22.63;17.13;;;154.20;2252.80;;;;;;5093218;28;20039;-68
2021/03/24 09:48:54;;;;;;;23.38;17.45;;;154.10;2252.80;;;;;;5092174;28;20035;-77
2021/03/24 09:51:24;;;;;;;25.25;16.70;;;154.10;2252.80;;;;;;5093223;28;20074;-72
2021/03/24 09:53:50;;;;;;;24.77;17.67;;;154.10;2252.80;;;;;;5094095;28;20032;-70
2021/03/24 09:56:21;;;;;;;27.02;18.98;;;154.00;2252.80;;;;;;5093288;28;20035;-73
2021/03/24 09:59:19;;;;;;;27.13;18.75;;;154.10;2252.80;;;;;;5075106;28;20036;-72
2021/03/24 10:02:09;;;;;;;25.02;17.67;;;154.10;2252.80;;;;;;5086442;28;20043;-71
2021/03/24 10:04:49;;;;;;;29.98;18.70;;;154.10;2252.80;;;;;;5095427;28;20082;-75
2021/03/24 10:07:28;;;;;;;25.50;19.42;;;154.20;2252.80;;;;;;5090731;28;20036;-77
2021/03/24 10:10:12;;;;;;;27.13;19.90;;;154.10;2252.80;;;;;;5094859;28;20028;-70
2021/03/24 10:12:45;;;;;;;27.90;20.70;;;154.10;2252.80;;;;;;5081674;28;20024;-84
2021/03/24 10:15:13;;;;;;;30.13;19.90;;;154.00;2252.80;;;;;;5090315;28;20533;-71
2021/03/24 10:17:48;;;;;;;28.38;19.70;;;154.20;2252.80;;;;;;5092743;28;20024;-69
2021/03/24 10:20:35;;;;;;;27.25;19.15;;;154.20;2252.80;;;;;;5093101;28;20028;-69
2021/03/24 10:23:14;;;;;;;28.17;18.70;;;154.40;2252.80;;;;;;5093698;28;20088;-67
2021/03/24 10:25:41;;;;;;;25.60;18.88;;;179.20;2252.80;;;;;;5093027;28;20512;-75
2021/03/24 10:28:33;;;;;;;26.98;18.70;;;179.40;2252.80;;;;;;5093733;28;20047;-70
2021/03/24 10:31:03;;;;;;;27.17;18.90;;;179.80;2252.80;;;;;;5084890;28;20016;-69
2021/03/24 10:33:43;;;;;;;24.45;18.70;;;204.80;2252.80;;;;;;5092496;28;20470;-73
2021/03/24 10:36:29;;;;;;;27.60;18.92;;;204.90;2252.80;;;;;;5093026;28;20084;-72
2021/03/24 10:38:55;;;;;;;26.92;20.20;;;205.00;2252.80;;;;;;5092439;28;20063;-67
2021/03/24 10:41:28;;;;;;;28.75;20.67;;;205.20;2252.80;;;;;;5091572;28;20044;-75
2021/03/24 10:44:21;;;;;;;26.45;18.55;;;205.30;2252.80;;;;;;5089239;28;20104;-80
2021/03/24 10:47:13;;;;;;;29.13;19.17;;;205.50;2252.80;;;;;;5083975;28;20040;-67
2021/03/24 10:49:44;;;;;;;27.55;18.40;;;230.40;2252.80;;;;;;5083413;28;20024;-81
2021/03/24 10:52:18;;;;;;;22.83;16.35;;;230.40;2252.80;;;;;;5092411;28;20048;-69
2021/03/24 10:54:45;;;;;;;23.75;16.73;;;205.70;2252.80;;;;;;5092610;28;20620;-77
2021/03/24 10:57:52;;;;;;;21.08;16.55;;;230.50;2252.80;;;;;;5092112;28;20032;-77
2021/03/24 11:00:30;;;;;;;20.98;15.18;;;230.50;2252.80;;;;;;5092417;28;20028;-79
2021/03/24 11:03:08;;;;;;;19.38;13.35;;;230.60;2201.60;;;;;;5093001;28;20032;-73
2021/03/24 11:05:42;;;;;;;16.48;11.52;;;230.70;2124.80;;;;;;5093404;28;20020;-87
2021/03/24 11:08:36;;;;;;;17.33;12.13;;;230.50;2099.20;;;;;;5089269;28;20115;-83
2021/03/24 11:11:08;;;;;;;19.63;13.10;;;230.50;2150.40;;;;;;5091639;28;20028;-83
2021/03/24 11:13:42;;;;;;;17.60;13.55;;;230.80;2252.80;;;;;;5073421;28;20032;-72
2021/03/24 11:16:27;;;;;;;19.35;12.93;;;230.40;2150.40;;;;;;5083298;28;20029;-72
2021/03/24 11:19:16;;;;;;;15.88;11.43;;;230.40;2124.80;;;;;;5090784;28;20032;-72
2021/03/24 11:22:09;;;;;;;20.30;12.85;;;205.60;2073.60;;;;;;5088464;28;20102;-78
2021/03/24 11:24:56;;;;;;;16.17;11.23;;;205.60;2150.40;;;;;;5082912;28;20043;-74
2021/03/24 11:27:29;;;;;;;12.40;7.63;;;205.30;2099.20;;;;;;5091726;28;20176;-70
2021/03/24 11:30:01;;;;;;;11.43;7.88;;;205.00;2022.40;;;;;;5091875;28;20032;-76
2021/03/24 11:32:30;;;;;;;9.50;6.82;;;205.00;1996.80;;;;;;5085104;28;20048;-80
2021/03/24 11:35:16;;;;;;;10.07;6.97;;;204.90;2022.40;;;;;;5088500;28;20060;-71
2021/03/24 11:38:00;;;;;;;12.13;7.53;;;204.80;1971.20;;;;;;5074656;28;20032;-91
2021/03/24 11:40:31;;;;;;;14.43;7.82;;;180.10;2022.40;;;;;;5087602;28;20024;-72
2021/03/24 11:43:07;;;;;;;8.85;6.43;;;180.10;1971.20;;;;;;5090985;28;20032;-78
2021/03/24 11:45:36;;;;;;;11.45;7.20;;;179.90;1945.60;;;;;;5092019;28;20055;-83
2021/03/24 11:48:11;;;;;;;14.00;7.70;;;179.90;1971.20;;;;;;5091305;28;20038;-83
2021/03/24 11:50:40;;;;;;;12.43;8.05;;;180.00;1971.20;;;;;;5089302;28;20024;-83
2021/03/24 11:53:20;;;;;;;12.65;8.30;;;179.90;2022.40;;;;;;5089091;28;20492;-69
2021/03/24 11:55:55;;;;;;;13.90;8.18;;;180.10;2022.40;;;;;;5091770;28;20028;-79
2021/03/24 11:58:23;;;;;;;12.50;9.27;;;205.00;2022.40;;;;;;5091734;28;20538;-79
2021/03/24 12:01:21;;;;;;;12.00;7.60;;;205.10;2022.40;;;;;;5091592;28;20436;-72
2021/03/24 12:03:53;;;;;;;14.20;8.23;;;205.20;1945.60;;;;;;5090817;28;20020;-74
2021/03/24 12:06:37;;;;;;;11.68;8.07;;;205.10;1920.00;;;;;;5091948;28;20016;-73
2021/03/24 12:09:11;;;;;;;13.98;8.68;;;205.30;1945.60;;;;;;5091509;28;20028;-86
2021/03/24 12:11:41;;;;;;;14.77;7.38;;;205.40;1945.60;;;;;;5086608;28;20028;-80
2021/03/24 12:14:13;;;;;;;12.32;7.80;;;205.30;1843.20;;;;;;5089150;28;20032;-82
2021/03/24 12:16:42;;;;;;;12.30;7.63;;;205.20;1894.40;;;;;;5089005;28;20024;-77
2021/03/24 12:19:38;;;;;;;11.43;7.95;;;204.90;1894.40;;;;;;5086439;28;20043;-76
2021/03/24 12:22:18;;;;;;;18.73;10.68;;;205.10;1894.40;;;;;;5089364;28;20032;-78
2021/03/24 12:24:46;;;;;;;12.88;8.23;;;205.30;1894.40;;;;;;5082764;28;20024;-67
2021/03/24 12:27:16;;;;;;;11.63;6.60;;;205.10;1894.40;;;;;;5086256;28;20386;-78
2021/03/24 12:30:01;;;;;;;10.07;6.45;;;205.20;1843.20;;;;;;5086792;28;20027;-69
2021/03/24 12:32:29;;;;;;;14.23;6.35;;;205.10;1817.60;;;;;;5078492;28;20036;-76
2021/03/24 12:34:56;;;;;;;10.30;6.05;;;205.10;1792.00;;;;;;5090069;28;20024;-81
2021/03/24 12:37:24;;;;;;;11.43;6.53;;;204.90;1792.00;;;;;;5086259;28;20496;-71
2021/03/24 12:39:51;;;;;;;9.25;6.47;;;204.90;1843.20;;;;;;5090110;28;20538;-70
2021/03/24 12:42:31;;;;;;;9.13;6.22;;;204.90;1843.20;;;;;;5068472;28;20032;-68
2021/03/24 12:44:59;;;;;;;12.15;7.35;;;205.10;1843.20;;;;;;5085211;28;20076;-74
2021/03/24 12:47:40;;;;;;;12.38;7.05;;;205.30;1868.80;;;;;;5090559;28;20043;-72